Tiempo atmosférico en la estación meteorológica de Valencia De Alcántara, Cáceres (445 m.)



Fecha
DESCASC
Temp. máxima en grados centígrados (hora)
DESCASC
Temp. mínima en grados centígrados (hora)
DESCASC
Temp. media en grados centígrados
DESCASC
Racha de viento máxima en m/sg (hora)
DESCASC
Velocidad máxima media en intervalos de 10 minutos(hora)
DESCASC
Precipitaciones diarias en mm
DESCASC
Precipitaciones de 00:00 a 06:00 en mm
DESCASC
Precipitaciones de 06:00 a 12:00 en mm
DESCASC
Precipitaciones de 12:00 a 18:00 en mm
DESCASC
Precipitaciones de 18:00 a 24:00 en mm
DESCASC
05-04-2020 15.9 (17:10) 10.8 (06:00) 13.3 13.61 (11:50) 8.06 (08:40) 4.4 0 0 1 3.4
04-04-2020 16.2 (17:10) 9.9 (07:10) 13.1 12.5 (15:10) 6.67 (15:10) 0 0 0 0 0
03-04-2020 19.1 (18:30) 4.7 (08:30) 11.9 8.33 (15:00) 4.17 (11:40) 0 0 0 0 0
02-04-2020 17.3 (18:50) 4.9 (00:00) 11.1 6.94 (17:20) 3.61 (17:30) 4 4 0 0 0
01-04-2020 12 (15:30) 1.4 (00:00) 6.7 10.28 (16:20) 6.11 (15:40) 15 0 0.4 0 14.6
31-03-2020 9.6 (18:40) 3.5 (00:00) 6.6 11.11 (02:40) 6.39 (02:40) 13 8.4 4.6 0 0
30-03-2020 11 (00:00) 4.8 (00:00) 7.9 8.33 (22:30) 4.72 (23:40) 7.2 0 0 3.2 4
29-03-2020 17.9 (16:50) 6.6 (00:00) 12.2 6.11 (14:10) 3.33 (12:40) 0 0 0 0 0
28-03-2020 15.7 (18:20) 2.3 (00:00) 9 9.44 (14:30) 5.56 (11:50) 0 0 0 0 0
27-03-2020 14.4 (15:20) 2.6 (00:00) 8.5 10.28 (17:10) 5.28 (15:10) 0 0 0 0 0
26-03-2020 18.7 (16:30) 7 (00:00) 12.9 11.39 (17:00) 6.67 (17:10) 0 0 0 0 0
25-03-2020 19.9 (16:50) 6.9 (00:00) 13.4 11.11 (20:20) 6.39 (20:30) 0 0 0 0 0
24-03-2020 16.4 (17:30) 6.5 (00:00) 11.4 13.33 (12:50) 7.78 (13:40) 0.2 0.2 0 0 0
23-03-2020 16.2 (17:10) 6 (00:00) 11.1 10.83 (17:30) 6.11 (17:30) 0 0 0 0 0
22-03-2020 15.6 (18:00) 6.6 (05:10) 11.1 6.67 (14:00) 3.89 (15:10) 2.2 0 0 0 2.2
21-03-2020 12.9 (15:50) 7.6 (00:00) 10.2 10.83 (16:30) 6.39 (16:30) 11.4 10.4 0.8 0 0.2
20-03-2020 13.7 (15:20) 9 (00:00) 11.3 8.33 (18:00) 4.17 (17:00) 35.2 0.4 4.2 12.8 17.8
19-03-2020 18.3 (16:20) 10.3 (00:00) 14.3 8.89 (14:00) 5 (14:30) 0 0 0 0 0
18-03-2020 19.5 (17:00) 8.7 (00:00) 14.1 10.28 (10:30) 5.83 (10:30) 0 0 0 0 0
17-03-2020 16.3 (16:40) 3.1 (00:00) 9.7 12.5 (12:10) 6.67 (12:00) 0.6 0.6 0 0 0
16-03-2020 13.3 (14:20) 3.9 (00:00) 8.6 14.17 (14:50) 8.61 (15:10) 3.6 0 0 0.4 3.2
15-03-2020 20 (13:50) 6.2 (00:00) 13.1 13.61 (22:20) 8.33 (23:50) 0 0 0 0 0
14-03-2020 22.4 (18:00) 7.2 (00:00) 14.8 4.72 (10:40) 2.5 (21:20) 0 0 0 0 0
13-03-2020 20 (16:40) 7.7 (08:20) 13.8 6.67 (16:40) 3.61 (16:40) 0 0 0 0 0
12-03-2020 23.2 (16:40) 11.4 (00:00) 17.3 6.94 (13:20) 4.17 (13:20) 0 0 0 0 0
11-03-2020 24.3 (13:40) 9.5 (00:00) 16.9 6.39 (13:10) 3.89 (13:10) 0 0 0 0 0
10-03-2020 23.4 (18:20) 7.1 (00:00) 15.2 3.89 (15:40) 2.22 (06:00) 0 0 0 0 0
09-03-2020 19.1 (18:00) 4.8 (00:00) 12 8.61 (14:50) 4.72 (15:40) 0 0 0 0 0

Gráficas

Temp. máximas Temp. mínimas Temp. medias Precipitaciones Rachas de viento máximas Velocidades máximas media en intervalos de 10 minutos

Datos horarios

Fecha y hora oficial Temperatura (ºC) Velocidad del viento (km/h) Dirección del viento Racha (km/h) Dirección de racha Precipitación (mm) Presión (hPa) Tendencia (hPa) Humedad (%)
2020-04-07 23:00:00 15.5 8 Sur 14 Sur 0 970.6 1.2 83
2020-04-07 22:00:00 15.7 6 Sur 14 Sur 0 969.9 0.6 82
2020-04-07 21:00:00 16.9 9 Sudeste 18 Sudeste 0 969.5 0.4 76
2020-04-07 20:00:00 17.9 12 Sudeste 25 Sudeste 0 969.4 0.1 72
2020-04-07 19:00:00 18.4 12 Sudeste 25 Sudeste 0 969.3 -0.3 71
2020-04-07 18:00:00 18.6 12 Sur 28 Sur 0 969.1 -0.8 68
2020-04-07 17:00:00 19.2 14 Sur 32 Sudeste 0 969.3 -0.8 67
2020-04-07 16:00:00 19 15 Sur 28 Sudeste 0 969.6 -0.5 67
2020-04-07 15:00:00 17.9 15 Sur 28 Sudeste 0 969.9 -0.2 73
2020-04-07 14:00:00 17.2 13 Sur 27 Sudeste 0 970.1 0.6 82
2020-04-07 13:00:00 16.8 15 Sur 28 Sudeste 0 970.1 1.1 82
2020-04-07 12:00:00 15.9 13 Sur 27 Sur 0 970.1 1.4 84
2020-04-07 11:00:00 16.5 10 Sur 21 Sur 0 969.5 1.3 83
2020-04-07 10:00:00 13.7 9 Sur 14 Sur 1.2 969 0.9 95
2020-04-07 09:00:00 13 8 Sudeste 20 Sudeste 0.2 968.7 0.7 95
2020-04-07 08:00:00 13 12 Este 20 Este 1 968.2 0.1 95
2020-04-07 07:00:00 13 10 Sudeste 23 Sudeste 1.4 968.1 -0.3 95
2020-04-07 06:00:00 13.2 10 Sudeste 25 Sudeste 1.2 968 -0.3 95
2020-04-07 05:00:00 13.4 11 Sudeste 27 Sur 0 968.1 -0.3 94
2020-04-07 04:00:00 13.5 15 Sudeste 28 Sudeste 0 968.4 0.1 94
2020-04-07 03:00:00 13.5 16 Sudeste 30 Sudeste 0.6 968.3 -0.2 94
2020-04-07 02:00:00 13.5 13 Sudeste 33 Sudeste 1 968.4 -0.4 94
2020-04-07 01:00:00 13.2 18 Sudeste 38 Este 3.4 968.3 -0.2 94
2020-04-07 00:00:00 13.3 12 Sudeste 22 Sudeste 1.6 968.5 0.5 95
2020-04-06 23:00:00 13.3 8 Sudeste 18 Sudeste 1 968.8 1.1 94
2020-04-06 22:00:00 13.5 10 Sudeste 20 Sudeste 1.8 968.5 0.8 94
2020-04-06 21:00:00 13.6 4 Este 23 Este 1.8 968 0 93
2020-04-06 20:00:00 14.1 8 Este 20 Sudeste 2 967.7 -0.2 93
2020-04-06 19:00:00 14.7 2 Sudeste 10 Sudeste 1 967.7 -0.7 88
2020-04-06 18:00:00 15.2 5 Sur 18 Sudeste 0.8 968 -0.2 86
2020-04-06 17:00:00 15 9 Sudeste 21 Sur 0.8 967.9 -0.4 84
2020-04-06 16:00:00 15.7 13 Sur 25 Sur 0 968.4 0 78
2020-04-06 15:00:00 16.3 13 Sudeste 24 Sudeste 0 968.2 -0.2 74
2020-04-06 14:00:00 15.1 14 Sudeste 26 Sudeste 0 968.3 0.6 78
2020-04-06 13:00:00 14.8 12 Sur 24 Sur 0 968.4 1.1 79
2020-04-06 12:00:00 14.2 9 Sur 21 Sudeste 0 968.4 1.9 77
2020-04-06 11:00:00 13 6 Sur 14 Sur 0 967.7 2 86
2020-04-06 10:00:00 11.7 4 Nordeste 15 Sur 0 967.3 1.9 93
2020-04-06 09:00:00 10.3 7 Sudeste 19 Este 0 966.5 1.4 94
2020-04-06 08:00:00 9.5 9 Sudeste 11 Sudeste 0 965.7 0.6 92
2020-04-06 07:00:00 10.3 3 Noroeste 8 Sudoeste 0 965.4 0.5 91
2020-04-06 06:00:00 10.9 7 Oeste 15 Sudoeste 0 965.1 0.1 89
2020-04-06 05:00:00 11.1 3 Sudoeste 10 Sudoeste 0 965.1 0.3 89
2020-04-06 04:00:00 11.6 4 Sudeste 16 Sudoeste 0 964.9 0.3 89
2020-04-06 03:00:00 12.4 9 Sudoeste 19 Sudoeste 0 965 1 89
2020-04-06 02:00:00 12.8 7 Sudoeste 19 Sudoeste 0 964.8 1.3 89
2020-04-06 01:00:00 13.1 8 Sur 26 Sudoeste 0 964.6 2 88
2020-04-06 00:00:00 13.8 10 Sudoeste 32 Sudoeste 0 964 1.9 87
2020-04-05 23:00:00 14.4 11 Sudoeste 20 Sudoeste 0 963.5 1.9 87
2020-04-05 22:00:00 14.3 11 Sur 28 Sur 0.2 962.6 1.2 89
2020-04-05 21:00:00 14.4 16 Sur 37 Sur 0.6 962.1 0.8 92
2020-04-05 20:00:00 14.5 14 Sur 45 Sur 1.4 961.6 0 92
2020-04-05 19:00:00 14.4 23 Sur 48 Sur 1.2 961.4 -0.6 91
2020-04-05 18:00:00 14.6 23 Sur 49 Sur 0.6 961.3 -0.9 89
2020-04-05 17:00:00 15.7 22 Sur 45 Sur 0 961.6 -1 78
2020-04-05 16:00:00 15.7 22 Sur 45 Sur 0 962 -0.5 78
2020-04-05 15:00:00 14.9 19 Sur 45 Sur 0 962.2 -0.4 85
2020-04-05 14:00:00 14.3 24 Sudeste 46 Sur 0.4 962.6 0 90
2020-04-05 13:00:00 14.2 24 Sudeste 48 Sudeste 0 962.5 0.1 79
2020-04-05 12:00:00 13.9 25 Sudeste 49 Sudeste 0 962.6 0.7 74
2020-04-05 11:00:00 11.8 23 Sudeste 47 Sudeste 0 962.6 1.1 79
2020-04-05 10:00:00 11.4 28 Sudeste 47 Sur 0 962.4 0.9 81
2020-04-05 09:00:00 11 27 Sudeste 45 Sudeste 0 961.9 0.4 83
2020-04-05 08:00:00 11 25 Sudeste 39 Sur 0 961.5 0.5 82
2020-04-05 07:00:00 11 19 Sudeste 38 Sudeste 0 961.5 0 83
2020-04-05 06:00:00 10.9 15 Sur 27 Sudeste 0 961.5 -0.3 84
2020-04-05 05:00:00 11.2 16 Sur 32 Sur 0 961 -1 84
2020-04-05 04:00:00 11.2 13 Sur 28 Sudeste 0 961.5 -0.6 84
2020-04-05 03:00:00 11.4 12 Sur 26 Sudeste 0 961.8 0.2 84
2020-04-05 02:00:00 12.1 15 Sudeste 26 Sudeste 0 962 0.2 79
2020-04-05 01:00:00 12.1 12 Sudeste 28 Sudeste 0 962.1 0.8 77
2020-04-05 00:00:00 12.4 18 Sudeste 30 Sudeste 0 961.6 0.6 76
2020-04-04 23:00:00 12.8 17 Sudeste 31 Sudeste 0 961.8 1 74
2020-04-04 22:00:00 12.6 12 Sudeste 24 Sudeste 0 961.3 0.8 79
2020-04-04 21:00:00 12.8 14 Sudeste 30 Sur 0 961 0.7 76
2020-04-04 20:00:00 13.9 13 Sur 31 Sur 0 960.8 0.4 69
2020-04-04 19:00:00 14.6 18 Sudeste 38 Sur 0 960.5 0.1 60
2020-04-04 18:00:00 15.9 21 Sudeste 35 Sudeste 0 960.3 -0.3 52
2020-04-04 17:00:00 16 19 Sudeste 41 Sudeste 0 960.4 -0.4 53
2020-04-04 16:00:00 15.6 21 Sudeste 45 Sudeste 0 960.4 -0.7 54
2020-04-04 15:00:00 15.2 19 Sudeste 40 Sur 0 960.6 -0.5 57
2020-04-04 14:00:00 15.1 18 Sudeste 39 Este 0 960.8 0.1 55
2020-04-04 13:00:00 14.4 18 Sudeste 39 Sudeste 0 961.1 0.6 60
2020-04-04 12:00:00 13.9 19 Sudeste 34 Sudeste 0 961.1 0.7 56
2020-04-04 11:00:00 13 16 Sudeste 32 Sudeste 0 960.7 0.5 63
2020-04-04 10:00:00 12.9 18 Sudeste 33 Este 0 960.5 0.2 61
2020-04-04 09:00:00 10.5 13 Este 24 Este 0 960.4 0.1 72
2020-04-04 08:00:00 10.2 15 Sudeste 23 Sudeste 0 960.2 -0.3 73
2020-04-04 07:00:00 10 10 Sudeste 24 Este 0 960.3 -0.7 75
2020-04-04 06:00:00 11.6 12 Sudeste 22 Sudeste 0 960.3 -1.1 69
2020-04-04 05:00:00 11.9 9 Sudeste 19 Sudeste 0 960.5 -1.2 68
2020-04-04 04:00:00 12.6 11 Sudeste 21 Sudeste 0 961 -1 63
2020-04-04 03:00:00 13.8 16 Sudeste 28 Este 0 961.4 -0.9 54
2020-04-04 02:00:00 14.3 12 Sudeste 20 Sudeste 0 961.7 -0.7 53
2020-04-04 01:00:00 10.7 8 Sudeste 16 Sudeste 0 962 0.1 76
2020-04-04 00:00:00 10.5 8 Sudeste 12 Sudeste 0 962.3 0.5 77
2020-04-03 23:00:00 11.3 6 Sudoeste 8 Sudoeste 0 962.4 0.6 76
2020-04-03 22:00:00 14.5 6 Sudeste 9 Sudeste 0 961.9 0.2 58
2020-04-03 21:00:00 16.5 5 Sudeste 14 Este 0 961.8 0 51
2020-04-03 20:00:00 18 10 Sudeste 26 Sur 0 961.8 -0.3 44
2020-04-03 19:00:00 18.5 10 Sudeste 24 Sudeste 0 961.7 -1.1 43
2020-04-03 18:00:00 18.6 8 Este 27 Este 0 961.8 -1.6 42
2020-04-03 17:00:00 18.4 9 Este 21 Este 0 962.1 -1.9 47
2020-04-03 16:00:00 17.9 12 Este 24 Sudeste 0 962.8 -1.6 50
2020-04-03 15:00:00 17.7 13 Este 30 Sudeste 0 963.4 -1.2 46
2020-04-03 14:00:00 16.3 8 Nordeste 23 Este 0 964 -0.3 57
2020-04-03 13:00:00 16.5 13 Sudeste 24 Sudeste 0 964.4 0.6 55
2020-04-03 12:00:00 15.2 14 Este 26 Este 0 964.6 0.8 56
2020-04-03 11:00:00 14 9 Este 15 Este 0 964.3 1 65
2020-04-03 10:00:00 11 4 Este 9 Nordeste 0 963.8 0.8 71
2020-04-03 09:00:00 5.3 4 Este 11 Nordeste 0 963.8 0.8 90
2020-04-03 08:00:00 4.9 4 Sudeste 10 Este 0 963.3 0.2 90
2020-04-03 07:00:00 5.1 4 Este 7 Sudeste 0 963 -0.4 92
2020-04-03 06:00:00 5.5 5 Sur 12 Sudeste 0 963 -0.5 92
2020-04-03 05:00:00 6.1 7 Sur 10 Sur 0 963.1 -0.7 92
2020-04-03 04:00:00 6.8 5 Sur 10 Sur 0 963.4 -0.5 91
2020-04-03 03:00:00 7.8 8 Sudoeste 15 Sudeste 0 963.5 -0.2 90
2020-04-03 02:00:00 8.8 6 Sur 10 Sur 0 963.8 0.6 87
2020-04-03 01:00:00 10.6 4 Oeste 13 Oeste 0 963.9 1.4 82
2020-04-03 00:00:00 11.5 8 Oeste 22 Sudoeste 0 963.7 1.6 79
2020-04-02 23:00:00 12.1 6 Sudoeste 17 Sudoeste 0 963.2 1.5 72
2020-04-02 22:00:00 13.4 10 Oeste 19 Oeste 0 962.5 0.9 66
2020-04-02 21:00:00 15.1 9 Oeste 19 Noroeste 0 962.1 0.7 56
2020-04-02 20:00:00 16.7 11 Noroeste 22 Noroeste 0 961.7 0.2 49
2020-04-02 19:00:00 16.9 10 Noroeste 21 Noroeste 0 961.6 0.1 47
2020-04-02 18:00:00 16.6 10 Noroeste 25 Norte 0 961.4 -0.1 52
2020-04-02 17:00:00 16.1 10 Noroeste 22 Noroeste 0 961.5 -0.1 54
2020-04-02 16:00:00 15.1 7 Noroeste 17 Noroeste 0 961.5 0 56
2020-04-02 15:00:00 14.3 7 Noroeste 20 Noroeste 0 961.5 0.3 60
2020-04-02 14:00:00 13.8 8 Noroeste 24 Norte 0 961.6 0.6 66
2020-04-02 13:00:00 13 10 Noroeste 18 Noroeste 0 961.5 1.4 67
2020-04-02 12:00:00 10.3 5 Oeste 13 Oeste 0 961.2 1.5 77
2020-04-02 11:00:00 9.1 5 Noroeste 10 Norte 0 961 2.1 85
2020-04-02 10:00:00 7 5 Oeste 12 Oeste 0 960.1 1.5 92
2020-04-02 09:00:00 4.9 6 Oeste 10 Oeste 0 959.7 0.9 95
2020-04-02 08:00:00 5.3 4 Sudoeste 5 Sudoeste 0 958.9 0 95
2020-04-02 07:00:00 6 3 Sudoeste 4 Este 0 958.6 -0.2 94
2020-04-02 06:00:00 5.9 5 Nordeste 11 Norte 0.4 958.8 -0.1 95
2020-04-02 05:00:00 5.9 8 Nordeste 17 Nordeste 3.6 958.9 -0.1 96
2020-04-02 04:00:00 6 3 Norte 9 Este 0 958.8 -0.5 95
2020-04-02 03:00:00 6 5 Norte 13 Este 0 958.9 -0.3 94
2020-04-02 02:00:00 6.2 3 Nordeste 9 Este 0 959 0.1 91
2020-04-02 01:00:00 6.5 8 Este 15 Este 0 959.3 0.1 91
2020-04-02 00:00:00 6.2 2 Sudeste 15 Este 0 959.2 1 90
2020-04-01 23:00:00 6.2 5 Sudeste 30 Este 4.8 958.9 0.8 89
2020-04-01 22:00:00 6.8 14 Sudoeste 26 Sudoeste 7.6 959.2 0.9 90
2020-04-01 21:00:00 7.9 3 Sur 12 Sudoeste 1.6 958.2 0.2 89
2020-04-01 20:00:00 8.5 5 Este 30 Sudeste 0.4 958.1 -0.1 83
2020-04-01 19:00:00 9 21 Sudeste 34 Sudeste 0.2 958.3 -0.1 77
2020-04-01 18:00:00 10.5 19 Sudeste 36 Sudeste 0 958 -1.1 66
2020-04-01 17:00:00 10.8 21 Sudeste 37 Sudeste 0 958.2 -1.5 67
2020-04-01 16:00:00 11.2 18 Sudeste 35 Sudeste 0 958.4 -1.6 62
2020-04-01 15:00:00 11.8 16 Sudeste 35 Sudeste 0 959.1 -0.8 64
2020-04-01 14:00:00 9.8 19 Sudeste 33 Sudeste 0 959.7 -0.1 71
2020-04-01 13:00:00 9 19 Sudeste 35 Este 0 960 0.5 76
2020-04-01 12:00:00 7.5 17 Sudeste 28 Sudeste 0 959.9 1 80
2020-04-01 11:00:00 5.4 8 Este 14 Este 0 959.8 1.5 95
2020-04-01 10:00:00 4.6 7 Norte 16 Sur 0.4 959.5 1.4 94
2020-04-01 09:00:00 4.7 9 Sur 19 Sur 0 958.9 1.2 92
2020-04-01 08:00:00 3.4 4 Sur 14 Sudeste 0 958.3 0.6 96
2020-04-01 07:00:00 3 9 Sudeste 14 Sudeste 0 958.1 0.3 95
2020-04-01 06:00:00 1.6 5 Sur 9 Sudoeste 0 957.7 -0.2 94
2020-04-01 05:00:00 2.4 5 Sur 9 Sur 0 957.7 -0.2 93
2020-04-01 04:00:00 4.4 8 Sur 14 Sur 0 957.8 0.2 90
2020-04-01 03:00:00 5.3 10 Sur 14 Sur 0 957.9 0.8 88
2020-04-01 02:00:00 3.5 5 Sur 10 Sur 0 957.9 1.2 93
2020-04-01 01:00:00 3.7 6 Sur 10 Sudoeste 0 957.6 2.1 90
2020-04-01 00:00:00 4.5 6 Sur 14 Sur 0 957.1 2.6 87
2020-03-31 23:00:00 4.7 10 Sur 15 Sudoeste 0 956.7 2.9 89
2020-03-31 22:00:00 5.4 7 Sudoeste 23 Sudoeste 0 955.5 2.7 89
2020-03-31 21:00:00 6.5 12 Sudoeste 25 Sudoeste 0 954.5 2.2 86
2020-03-31 20:00:00 8 15 Sudoeste 24 Sudoeste 0 953.8 1.7 90
2020-03-31 19:00:00 9.3 4 Oeste 10 Sudoeste 0 952.8 0.8 89
2020-03-31 18:00:00 9.1 3 Oeste 8 Noroeste 0 952.3 0.4 87
2020-03-31 17:00:00 8.8 3 Norte 9 Norte 0 952.1 0.2 88
2020-03-31 16:00:00 8.3 4 Norte 13 Nordeste 0 952 0.3 88
2020-03-31 15:00:00 8.2 3 Norte 10 Nordeste 0 951.9 0.1 88
2020-03-31 14:00:00 7.5 4 Norte 12 Nordeste 0 951.9 0.3 90
2020-03-31 13:00:00 6.1 4 Nordeste 18 Este 0 951.7 0.1 91
2020-03-31 12:00:00 5 9 Nordeste 19 Nordeste 0 951.8 0.3 94
2020-03-31 11:00:00 4.3 11 Nordeste 27 Nordeste 0 951.6 0.3 94
2020-03-31 10:00:00 3.8 12 Nordeste 26 Nordeste 0.2 951.6 0.1 95
2020-03-31 09:00:00 3.7 15 Nordeste 27 Norte 1 951.5 -0.4 94
2020-03-31 08:00:00 3.7 13 Nordeste 24 Nordeste 1 951.3 -1.1 94
2020-03-31 07:00:00 3.5 10 Norte 19 Nordeste 2.4 951.5 -1.3 94
2020-03-31 06:00:00 3.7 13 Nordeste 27 Norte 3 951.9 -1.5 93
2020-03-31 05:00:00 3.9 12 Nordeste 34 Nordeste 0.8 952.4 -1.9 92
2020-03-31 04:00:00 4 18 Nordeste 39 Nordeste 1.2 952.8 -2.3 91
2020-03-31 03:00:00 4.3 17 Nordeste 40 Nordeste 0.8 953.4 -2.3 93
2020-03-31 02:00:00 4.5 18 Nordeste 35 Este 0.4 954.3 -1.9 93
2020-03-31 01:00:00 4.6 20 Nordeste 38 Nordeste 2.2 955.1 -1.5 94
2020-03-31 00:00:00 4.8 12 Nordeste 30 Este 1.2 955.7 -0.7 93
2020-03-30 23:00:00 4.9 15 Nordeste 30 Nordeste 1.8 956.2 0 92
2020-03-30 22:00:00 5.2 12 Nordeste 29 Nordeste 0.2 956.6 0 90
2020-03-30 21:00:00 5.6 10 Nordeste 28 Norte 0.4 956.4 -0.8 86
2020-03-30 20:00:00 6.4 12 Norte 23 Norte 0.2 956.2 -1.5 83
2020-03-30 19:00:00 7.3 9 Nordeste 26 Nordeste 0.2 956.6 -1.5 82
2020-03-30 18:00:00 8.6 16 Nordeste 26 Nordeste 0 957.2 -2.2 72
2020-03-30 17:00:00 8.9 12 Nordeste 22 Nordeste 0 957.7 -2.2 75
2020-03-30 16:00:00 9.4 14 Nordeste 26 Nordeste 0.6 958.1 -2.4 79
2020-03-30 15:00:00 9.7 6 Nordeste 19 Norte 0.4 959.4 -1.2 81
2020-03-30 14:00:00 9.6 8 Norte 16 Norte 1 959.9 -0.6 86
2020-03-30 13:00:00 8.4 7 Noroeste 20 Norte 1.2 960.5 -0.1 80
2020-03-30 12:00:00 9.1 10 Nordeste 20 Nordeste 0 960.6 0 72
2020-03-30 11:00:00 8.9 11 Nordeste 24 Nordeste 0 960.5 0.3 72
2020-03-30 10:00:00 8.6 3 Norte 7 Sur 0 960.6 0.2 85
2020-03-30 09:00:00 7.4 5 Sur 12 Sudoeste 0 960.6 -0.2 86
2020-03-30 08:00:00 6.7 4 Nordeste 18 Norte 0 960.2 -1.1 89
2020-03-30 07:00:00 5.9 7 Sudoeste 11 Sudoeste 0 960.4 -1.4 88
2020-03-30 06:00:00 6.8 4 Sur 8 Sur 0 960.8 -1.8 86
2020-03-30 05:00:00 8.7 4 Este 9 Sur 0 961.3 -1.8 80
2020-03-30 04:00:00 8.7 6 Sur 15 Sur 0 961.8 -1.6 81
2020-03-30 03:00:00 8.6 10 Sur 15 Sur 0 962.6 -1.2 82
2020-03-30 02:00:00 8.6 6 Sudoeste 11 Sur 0 963.1 -1 80
2020-03-30 01:00:00 10.2 6 Sur 12 Sur 0 963.4 -0.6 74
2020-03-30 00:00:00 11 8 Sudoeste 19 Sudoeste 0 963.8 0.1 71
2020-03-29 23:00:00 12.3 7 Sur 10 Sur 0 964.1 0.4 67
2020-03-29 22:00:00 13.6 7 Sur 10 Sudoeste 0 964 0.1 62
2020-03-29 21:00:00 15.2 6 Sudoeste 15 Sudoeste 0 963.7 -0.4 55
2020-03-29 20:00:00 16.7 8 Sudoeste 17 Sudoeste 0 963.7 -0.7 48
2020-03-29 19:00:00 17.2 8 Sudoeste 20 Sudoeste 0 963.9 -1.1 47
2020-03-29 18:00:00 17.4 6 Oeste 16 Noroeste 0 964.1 -1.5 43
2020-03-29 17:00:00 17.6 4 Sudoeste 20 Sudoeste 0 964.4 -1.5 44
2020-03-29 16:00:00 17.1 4 Norte 15 Sudoeste 0 965 -1.3 47
2020-03-29 15:00:00 16.2 8 Sudoeste 22 Sudeste 0 965.6 -0.9 48
2020-03-29 14:00:00 16.7 10 Sudeste 21 Sur 0 965.9 -0.4 43
2020-03-29 13:00:00 16.5 11 Este 21 Nordeste 0 966.3 0.2 54
2020-03-29 12:00:00 15.7 10 Este 18 Este 0 966.5 0.5 55
2020-03-29 11:00:00 14.7 6 Este 13 Este 0 966.3 0.6 55
2020-03-29 10:00:00 11.9 2 Este 9 Sur 0 966.1 0.5 60
2020-03-29 09:00:00 9.2 4 Sudeste 6 Sudeste 0 966 0.3 70
2020-03-29 08:00:00 8.9 3 Sur 7 Sudoeste 0 965.7 -0.2 75
2020-03-29 07:00:00 7.7 4 Sudoeste 8 Sudoeste 0 965.6 -0.6 80
2020-03-29 06:00:00 7.3 4 Sur 9 Sudoeste 0 965.7 -0.7 80
2020-03-29 05:00:00 6.8 5 Sudoeste 8 Sudoeste 0 965.9 -0.6 81
2020-03-29 03:00:00 7.4 6 Sur 10 Sudoeste 0 966.4 0.1 78
2020-03-29 01:00:00 7.9 7 Sur 10 Sudoeste 0 966.5 0.3 77
2020-03-29 00:00:00 8.3 6 Sur 10 Sur 0 966.5 0.9 77
2020-03-28 23:00:00 9 6 Sur 9 Sudoeste 0 966.3 1.3 74
2020-03-28 22:00:00 10 6 Sur 9 Sudoeste 0 966.2 1.6 71
2020-03-28 21:00:00 12 4 Sur 8 Sudeste 0 965.6 1.4 59
2020-03-28 20:00:00 14.1 5 Sudeste 15 Este 0 965 1 49
2020-03-28 19:00:00 15.5 8 Sudeste 23 Este 0 964.6 0.5 44
2020-03-28 18:00:00 15.2 9 Este 26 Sudeste 0 964.2 -0.3 47
2020-03-28 17:00:00 14.6 12 Este 27 Sudeste 0 964 -0.7 49
2020-03-28 16:00:00 15 15 Este 27 Este 0 964.1 -0.9 51
2020-03-28 15:00:00 15.2 12 Sudeste 34 Este 0 964.5 -0.7 48
2020-03-28 14:00:00 14.1 14 Este 30 Nordeste 0 964.7 -0.3 54
2020-03-28 13:00:00 12.8 16 Este 31 Nordeste 0 965 0.2 57
2020-03-28 12:00:00 10.9 16 Nordeste 33 Este 0 965.2 0.9 64
2020-03-28 11:00:00 8.7 17 Nordeste 31 Nordeste 0 965 1.5 68
2020-03-28 10:00:00 8.1 17 Este 27 Este 0 964.8 1.8 70
2020-03-28 09:00:00 6.1 10 Nordeste 20 Este 0 964.3 1.5 80
2020-03-28 08:00:00 4.7 9 Este 17 Este 0 963.5 0.7 83
2020-03-28 07:00:00 4.6 8 Este 22 Este 0 963 0.3 83
2020-03-28 06:00:00 3.1 3 Sudeste 9 Este 0 962.8 0 85
2020-03-28 05:00:00 2.4 4 Sudoeste 6 Sur 0 962.8 0.1 87
2020-03-28 04:00:00 3.5 4 Sur 8 Sur 0 962.7 0.2 85
2020-03-28 03:00:00 4.7 0 Calma 12 Sudeste 0 962.8 0.6 79
2020-03-28 02:00:00 6.8 7 Sudeste 14 Este 0 962.7 0.9 70
2020-03-28 01:00:00 7.5 9 Este 20 Sudeste 0 962.5 1.1 65
2020-03-28 00:00:00 7.9 11 Sudeste 21 Sudeste 0 962.2 1.7 64
2020-03-27 23:00:00 8.3 9 Este 17 Este 0 961.8 2 62
2020-03-27 22:00:00 8.7 9 Este 17 Este 0 961.4 2.1 61
2020-03-27 21:00:00 9.1 5 Este 14 Este 0 960.5 1.8 63
2020-03-27 20:00:00 10.9 9 Nordeste 22 Nordeste 0 959.8 1.4 53
2020-03-27 19:00:00 12.7 14 Nordeste 27 Nordeste 0 959.3 1 46
2020-03-27 18:00:00 13.4 16 Nordeste 37 Norte 0 958.7 0.5 45
2020-03-27 17:00:00 13.8 17 Nordeste 34 Nordeste 0 958.4 -0.1 44
2020-03-27 16:00:00 13.4 17 Nordeste 36 Nordeste 0 958.3 -0.1 46
2020-03-27 15:00:00 14.2 15 Nordeste 35 Norte 0 958.2 -0.4 47
2020-03-27 14:00:00 13.3 16 Nordeste 29 Este 0 958.5 0.2 49
2020-03-27 13:00:00 12.7 15 Nordeste 31 Nordeste 0 958.4 0.6 51
2020-03-27 12:00:00 11.5 17 Nordeste 33 Nordeste 0 958.6 1.1 53
2020-03-27 11:00:00 10.1 13 Nordeste 27 Nordeste 0 958.3 1.3 60
2020-03-27 10:00:00 8.7 13 Nordeste 26 Nordeste 0 957.8 1.5 59
2020-03-27 09:00:00 6.8 6 Norte 17 Norte 0 957.5 1.5 76
2020-03-27 08:00:00 2.9 5 Sur 9 Sur 0 957 1.2 88
2020-03-27 07:00:00 3 6 Sudoeste 7 Sur 0 956.3 0.3 88
2020-03-27 06:00:00 3.4 2 Oeste 8 Sudoeste 0 956 -0.6 84
2020-03-27 05:00:00 3.8 4 Sudoeste 8 Sudoeste 0 955.8 -1.2 83
2020-03-27 04:00:00 4.4 6 Sur 12 Sudoeste 0 956 -1.1 82
2020-03-27 03:00:00 5.2 4 Sur 7 Sudoeste 0 956.6 -0.7 80
2020-03-27 02:00:00 5.7 4 Sudoeste 8 Sudoeste 0 957 -0.4 78
2020-03-27 01:00:00 7.9 5 Sudoeste 12 Sudoeste 0 957.1 -0.7 66
2020-03-27 00:00:00 8.5 7 Sudoeste 11 Sudoeste 0 957.3 -0.4 68
2020-03-26 23:00:00 9.3 8 Sudoeste 23 Oeste 0 957.4 0 71
2020-03-26 22:00:00 10.2 13 Oeste 36 Oeste 0 957.8 0.5 71
2020-03-26 21:00:00 11.6 18 Oeste 34 Oeste 0 957.7 0.6 69
2020-03-26 20:00:00 13.2 21 Oeste 38 Oeste 0 957.4 0.1 61
2020-03-26 19:00:00 15.5 21 Oeste 41 Oeste 0 957.3 -0.5 55
2020-03-26 18:00:00 17.2 21 Oeste 39 Sudoeste 0 957.1 -1.2 49
2020-03-26 17:00:00 17.9 23 Oeste 41 Oeste 0 957.3 -1.6 50
2020-03-26 16:00:00 18.3 21 Oeste 40 Oeste 0 957.8 -1.8 47
2020-03-26 15:00:00 18.1 17 Oeste 34 Oeste 0 958.3 -1.8 45
2020-03-26 14:00:00 17.2 18 Oeste 32 Oeste 0 958.9 -1.7 48
2020-03-26 13:00:00 16.3 15 Oeste 31 Oeste 0 959.6 -1 50
2020-03-26 12:00:00 14.9 15 Oeste 27 Oeste 0 960.1 -0.4 56
2020-03-26 11:00:00 13.4 12 Oeste 28 Oeste 0 960.6 0.1 60
2020-03-26 10:00:00 12 14 Oeste 24 Oeste 0 960.6 0.5 64
2020-03-26 09:00:00 9.5 4 Oeste 9 Oeste 0 960.5 0.4 76
2020-03-26 08:00:00 8.2 5 Sur 10 Sur 0 960.5 0.3 74
2020-03-26 07:00:00 7.6 4 Sudoeste 10 Sudoeste 0 960.1 -0.8 77
2020-03-26 06:00:00 8 5 Sudoeste 9 Sudoeste 0 960.1 -1.4 75
2020-03-26 05:00:00 9 0 Calma 11 Sudoeste 0 960.2 -1.6 72
2020-03-26 04:00:00 9.9 8 Sudoeste 14 Oeste 0 960.9 -1 70
2020-03-26 03:00:00 10.6 6 Sudoeste 17 Sudoeste 0 961.5 -0.7 69
2020-03-26 02:00:00 11.3 8 Sudoeste 14 Oeste 0 961.8 -0.8 68
2020-03-26 01:00:00 11.9 8 Sudoeste 23 Oeste 0 961.9 -0.8 68
2020-03-26 00:00:00 12.2 10 Oeste 24 Oeste 0 962.2 -0.1 73
2020-03-25 23:00:00 13.1 13 Oeste 23 Oeste 0 962.6 0.6 73
2020-03-25 22:00:00 13.5 12 Oeste 27 Sudoeste 0 962.7 0.7 72
2020-03-25 21:00:00 13.4 14 Oeste 40 Noroeste 0 962.3 0.3 77
2020-03-25 20:00:00 17 15 Oeste 33 Oeste 0 962 -0.2 56
2020-03-25 19:00:00 18.5 12 Oeste 23 Oeste 0 962 -0.9 47
2020-03-25 18:00:00 18.2 11 Oeste 21 Noroeste 0 962 -1.4 47
2020-03-25 17:00:00 19.6 13 Oeste 25 Oeste 0 962.2 -1.7 41
2020-03-25 16:00:00 19 10 Noroeste 22 Noroeste 0 962.9 -1.6 41
2020-03-25 15:00:00 18.3 7 Noroeste 19 Noroeste 0 963.4 -1.4 49
2020-03-25 14:00:00 17.9 5 Noroeste 23 Norte 0 963.9 -1.1 49
2020-03-25 13:00:00 16.5 5 Nordeste 14 Este 0 964.5 -0.4 51
2020-03-25 12:00:00 15.8 6 Este 12 Este 0 964.8 0.2 53
2020-03-25 11:00:00 13.8 5 Este 11 Nordeste 0 965 0.8 58
2020-03-25 10:00:00 11.3 4 Sudoeste 8 Sudoeste 0 964.9 1.3 74
2020-03-25 09:00:00 9.2 0 Calma 6 Sudeste 0 964.6 1.1 82
2020-03-25 08:00:00 8 3 Este 8 Este 0 964.2 0.7 81
2020-03-25 07:00:00 8.4 10 Este 18 Este 0 963.6 -0.2 78
2020-03-25 06:00:00 7.5 4 Sur 9 Sudeste 0 963.5 -0.1 81
2020-03-25 05:00:00 8.5 4 Sudeste 6 Sudeste 0 963.5 -0.1 78
2020-03-25 04:00:00 9.2 3 Noroeste 17 Este 0 963.8 0.1 76
2020-03-25 03:00:00 10.4 10 Sudeste 21 Sudeste 0 963.6 0.1 70
2020-03-25 02:00:00 11.1 12 Sudeste 21 Sudeste 0 963.6 0.3 66
2020-03-25 01:00:00 11.5 11 Sudeste 20 Sudeste 0 963.7 1 66
2020-03-25 00:00:00 12.3 13 Sudeste 19 Sudeste 0 963.5 1.2 66
2020-03-24 23:00:00 12.1 5 Sudeste 11 Este 0 963.3 1.6 70
2020-03-24 22:00:00 12.8 7 Este 14 Este 0 962.7 1.5 68
2020-03-24 21:00:00 12.8 5 Este 13 Este 0 962.3 1.2 67
2020-03-24 20:00:00 13.8 9 Este 28 Este 0 961.7 0.8 63
2020-03-24 19:00:00 15.5 16 Este 40 Nordeste 0 961.2 0.2 57
2020-03-24 18:00:00 16.1 23 Nordeste 44 Nordeste 0 961.1 -0.2 53
2020-03-24 17:00:00 15.6 22 Nordeste 46 Nordeste 0 960.9 -0.6 55
2020-03-24 16:00:00 15.5 22 Nordeste 41 Este 0 961 -0.8 59
2020-03-24 15:00:00 15 23 Nordeste 45 Nordeste 0 961.3 -0.5 60
2020-03-24 14:00:00 15.4 28 Nordeste 48 Nordeste 0 961.5 -0.3 58
2020-03-24 13:00:00 14.7 27 Nordeste 48 Nordeste 0 961.8 0.4 60
2020-03-24 12:00:00 14.6 23 Nordeste 43 Este 0 961.8 0.6 66
2020-03-24 11:00:00 13.7 23 Nordeste 46 Nordeste 0 961.8 0.8 68
2020-03-24 10:00:00 12.6 27 Nordeste 46 Nordeste 0 961.4 0.6 72
2020-03-24 09:00:00 11.2 18 Nordeste 32 Nordeste 0 961.2 0.5 76
2020-03-24 08:00:00 9.9 15 Este 30 Nordeste 0 961 0 82
2020-03-24 07:00:00 9.4 12 Nordeste 22 Nordeste 0 960.8 -0.5 86
2020-03-24 06:00:00 9.1 4 Nordeste 9 Nordeste 0.2 960.7 -0.7 89
2020-03-24 05:00:00 9 4 Nordeste 10 Nordeste 0 961 -0.4 86
2020-03-24 04:00:00 7.3 3 Norte 7 Nordeste 0 961.3 -0.3 90
2020-03-24 03:00:00 6.7 3 Sudeste 7 Este 0 961.4 -0.1 89
2020-03-24 02:00:00 6.9 5 Sudeste 10 Este 0 961.4 0 89
2020-03-24 01:00:00 7.1 3 Sudeste 9 Este 0 961.6 0.2 89
2020-03-24 00:00:00 7.7 5 Sur 9 Sudoeste 0 961.5 0.5 87
2020-03-23 23:00:00 8.9 4 Sudoeste 8 Sudoeste 0 961.4 1 84
2020-03-23 22:00:00 10.3 3 Noroeste 8 Este 0 961.4 1.1 77
2020-03-23 21:00:00 11.2 3 Este 11 Nordeste 0 961 1 73
2020-03-23 20:00:00 11.9 8 Norte 25 Nordeste 0 960.4 0.5 70
2020-03-23 19:00:00 13.7 16 Nordeste 32 Nordeste 0 960.3 0.1 61
2020-03-23 18:00:00 15.4 16 Nordeste 39 Nordeste 0 960 -0.8 54
2020-03-23 17:00:00 15.9 21 Nordeste 39 Nordeste 0 959.9 -1.5 52
2020-03-23 16:00:00 15.1 17 Nordeste 31 Este 0 960.2 -1.9 58
2020-03-23 15:00:00 15 17 Nordeste 30 Nordeste 0 960.8 -1.5 61
2020-03-23 14:00:00 14.6 18 Nordeste 36 Nordeste 0 961.4 -0.9 60
2020-03-23 13:00:00 13.6 14 Nordeste 27 Nordeste 0 962.1 0 69
2020-03-23 12:00:00 13.1 15 Nordeste 27 Nordeste 0 962.3 0.5 72
2020-03-23 11:00:00 10.8 7 Nordeste 15 Nordeste 0 962.3 0.8 86
2020-03-23 10:00:00 9.6 6 Este 13 Sudeste 0 962.1 1 89
2020-03-23 09:00:00 8.6 8 Este 15 Este 0 961.8 1.1 93
2020-03-23 08:00:00 7.8 6 Este 15 Este 0 961.5 1.1 95
2020-03-23 07:00:00 6.3 2 Sur 6 Este 0 961.1 0.7 95
2020-03-23 06:00:00 6.4 2 Sudeste 9 Sudeste 0 960.7 0.2 95
2020-03-23 05:00:00 6.1 3 Sur 8 Sur 0 960.4 -0.2 95
2020-03-23 04:00:00 6.6 3 Sur 9 Sudeste 0 960.4 -0.3 94
2020-03-23 03:00:00 7.5 5 Sur 10 Sudoeste 0 960.5 -0.2 94
2020-03-23 02:00:00 8.4 3 Sur 6 Sudeste 0 960.6 -0.4 93
2020-03-23 01:00:00 9.2 3 Sur 9 Sur 0 960.7 -0.3 91
2020-03-23 00:00:00 10.2 7 Sur 16 Sur 0 960.7 0.5 89
2020-03-22 23:00:00 10.1 6 Sur 11 Sur 1.8 961 1.3 89
2020-03-22 22:00:00 11.5 5 Este 12 Este 0.4 961 1.7 80
2020-03-22 21:00:00 12 4 Sur 9 Oeste 0 960.2 1.2 68
2020-03-22 20:00:00 13.3 5 Noroeste 12 Noroeste 0 959.7 0.6 59
2020-03-22 19:00:00 14.8 7 Noroeste 17 Noroeste 0 959.3 0.2 51
2020-03-22 18:00:00 15.2 8 Noroeste 22 Norte 0 959 -0.4 52
2020-03-22 17:00:00 15.1 6 Noroeste 19 Norte 0 959.1 -0.9 54
2020-03-22 16:00:00 13.4 9 Norte 24 Norte 0 959.1 -1.2 60
2020-03-22 15:00:00 14.9 8 Norte 22 Norte 0 959.4 -1.1 58
2020-03-22 14:00:00 13.2 13 Norte 24 Norte 0 960 -0.4 62
2020-03-22 13:00:00 13.4 10 Nordeste 24 Norte 0 960.3 0.3 61
2020-03-22 12:00:00 11.1 11 Nordeste 19 Norte 0 960.5 0.9 71
2020-03-22 11:00:00 10.7 7 Nordeste 19 Nordeste 0 960.4 1.3 77
2020-03-22 10:00:00 9.6 9 Nordeste 15 Nordeste 0 960 1.2 81
2020-03-22 09:00:00 8.2 3 Este 9 Nordeste 0 959.6 1.2 89
2020-03-22 08:00:00 6.8 6 Nordeste 14 Nordeste 0 959.1 0.9 94
2020-03-22 07:00:00 6.8 7 Nordeste 12 Norte 0 958.8 0.6 94
2020-03-22 06:00:00 7.1 5 Nordeste 10 Nordeste 0 958.4 -0.2 96
2020-03-22 05:00:00 6.8 2 Noroeste 9 Norte 0 958.2 -0.4 95
2020-03-22 04:00:00 7.3 6 Norte 11 Norte 0 958.2 -0.4 95
2020-03-22 03:00:00 7.4 4 Este 13 Este 0 958.6 -0.1 95
2020-03-22 02:00:00 7.5 7 Este 16 Nordeste 0 958.6 -0.1 94
2020-03-22 01:00:00 7.9 8 Nordeste 11 Este 0 958.6 0 89
2020-03-22 00:00:00 8.3 7 Este 14 Nordeste 0 958.7 0.3 87
2020-03-21 23:00:00 8.3 3 Sudeste 14 Este 0 958.7 0.9 89
2020-03-21 22:00:00 8.5 8 Este 19 Este 0.2 958.6 1.3 92
2020-03-21 21:00:00 9 11 Este 19 Este 0 958.4 1.5 89
2020-03-21 20:00:00 9.7 8 Nordeste 26 Nordeste 0 957.8 0.6 82
2020-03-21 19:00:00 11.1 11 Norte 18 Este 0 957.3 0.1 72
2020-03-21 18:00:00 11.5 9 Este 21 Sudeste 0 956.9 -0.9 63
2020-03-21 17:00:00 10.6 14 Sudeste -- -- 0 957.2 -1.1 72
2020-03-21 16:00:00 12.4 12 Este 23 Nordeste 0 957.2 -1.6 58
2020-03-21 15:00:00 11.4 14 Este 28 Este 0 957.8 -1.6 69
2020-03-21 14:00:00 11.4 6 Sudeste 26 Este 0 958.3 -1.1 70
2020-03-21 13:00:00 12 13 Este 25 Este 0 958.8 -0.3 69
2020-03-21 12:00:00 10.9 13 Este 23 Sudeste 0 959.4 0.7 70
2020-03-21 11:00:00 9.9 4 Sur 14 Sudeste 0 959.4 1.3 74
2020-03-21 10:00:00 8.7 6 Sur 12 Sur 0 959.1 1.2 84
2020-03-21 09:00:00 7.9 7 Sur 13 Sur 0.2 958.7 0.7 88
2020-03-21 08:00:00 7.7 4 Sur 8 Sur 0 958.1 0.3 93
2020-03-21 07:00:00 7.8 2 Sudoeste 12 Sudoeste 0.6 957.9 0.3 93
2020-03-21 06:00:00 7.9 7 Sudoeste 14 Sudoeste 2.6 958 -0.5 95
2020-03-21 05:00:00 8.2 5 Sudoeste 15 Sudoeste 0.4 957.8 -0.9 93
2020-03-21 04:00:00 8.4 6 Oeste 13 Oeste 0.4 957.6 -1.4 94
2020-03-21 03:00:00 8.9 6 Sur 19 Sudeste 1.2 958.5 -1.1 95
2020-03-21 02:00:00 8.7 8 Sudeste 16 Sudeste 1.4 958.7 -0.9 95
2020-03-21 01:00:00 8.9 5 Este 18 Este 4.4 959 -0.5 95
2020-03-21 00:00:00 9 10 Este 18 Este 8.6 959.6 -0.3 95
2020-03-20 23:00:00 9.5 2 Sudoeste 15 Oeste 4.2 959.6 0 94
2020-03-20 22:00:00 10.1 3 Noroeste 7 Noroeste 1.8 959.5 -0.3 95
2020-03-20 21:00:00 10.3 3 Noroeste 11 Noroeste 1.4 959.9 0.2 94
2020-03-20 20:00:00 10.7 6 Noroeste 12 Noroeste 0.2 959.6 -0.2 94
2020-03-20 19:00:00 11 5 Sur 26 Sur 1.6 959.8 -0.2 92
2020-03-20 18:00:00 11.4 14 Sur 30 Sur 5.8 959.7 -0.9 92
2020-03-20 17:00:00 11.8 15 Sudeste 26 Sudeste 4.2 959.8 -1.2 92
2020-03-20 16:00:00 13.2 8 Sur 19 Sur 0 960 -1.5 82
2020-03-20 15:00:00 13.4 10 Sur 19 Sudeste 0 960.6 -1.2 86
2020-03-20 14:00:00 12.9 5 Sur 12 Sudeste 0.8 961 -0.9 94
2020-03-20 13:00:00 11.6 6 Sudeste 16 Este 2 961.5 0 95
2020-03-20 12:00:00 11.3 11 Este 21 Sudeste 0.2 961.8 0.4 95
2020-03-20 11:00:00 11.2 12 Este 21 Este 0 961.9 1 95
2020-03-20 10:00:00 11.4 8 Sudeste 18 Sudeste 1 961.5 1 95
2020-03-20 09:00:00 11.2 5 Sudeste 13 Sudeste 1.4 961.4 1.3 94
2020-03-20 08:00:00 11 6 Este 19 Sudeste 1.6 960.9 0.5 93
2020-03-20 07:00:00 11.7 6 Sudeste 13 Este 0 960.5 -0.5 84
2020-03-20 06:00:00 11.2 7 Este 12 Este 0 960.1 -1.4 85
2020-03-20 05:00:00 12.1 4 Sur 10 Sudoeste 0.4 960.4 -1.5 80
2020-03-20 04:00:00 11.6 5 Sudeste 13 Sudeste 0 961 -1.1 76
2020-03-20 03:00:00 10.9 5 Sudoeste 12 Sudeste 0 961.5 -1.1 78
2020-03-20 02:00:00 9.9 8 Sudoeste 12 Sudoeste 0 961.9 -1 82
2020-03-20 01:00:00 10.1 6 Sur 9 Sudoeste 0 962.1 -1 81
2020-03-20 00:00:00 10.8 5 Sur 9 Sur 0 962.6 -0.6 78
2020-03-19 23:00:00 11.9 5 Sur 9 Sudeste 0 962.9 -0.2 74
2020-03-19 22:00:00 13.3 5 Este 13 Este 0 963.1 0.1 67
2020-03-19 21:00:00 13.9 9 Este 23 Este 0 963.2 0.3 65
2020-03-19 20:00:00 14.6 10 Este 18 Este 0 963.1 -0.2 65
2020-03-19 19:00:00 16.6 6 Nordeste 18 Nordeste 0 963 -0.7 55
2020-03-19 18:00:00 16.9 9 Norte 27 Este 0 962.9 -1.6 54
2020-03-19 17:00:00 17.8 13 Nordeste 23 Nordeste 0 963.3 -2.1 50
2020-03-19 16:00:00 17.8 13 Nordeste 23 Nordeste 0 963.7 -2.6 41
2020-03-19 15:00:00 17.6 17 Este 32 Este 0 964.5 -2.4 42
2020-03-19 14:00:00 17.5 16 Este 32 Este 0 965.4 -1.6 41
2020-03-19 13:00:00 15.7 14 Este 23 Este 0 966.3 -0.9 53
2020-03-19 12:00:00 13.8 11 Nordeste 24 Este 0 966.9 -0.1 53
2020-03-19 11:00:00 12.7 9 Este 19 Nordeste 0 967 0.1 59
2020-03-19 10:00:00 11.5 8 Este 14 Este 0 967.2 0.3 59
2020-03-19 09:00:00 10.7 3 Este 9 Este 0 967 0 58
2020-03-19 08:00:00 10.7 6 Este 14 Sudeste 0 966.9 -0.2 59
2020-03-19 07:00:00 12.2 7 Sudeste 19 Sudeste 0 966.9 -0.4 50
2020-03-19 06:00:00 12.3 6 Sudeste 22 Este 0 967 -0.6 53
2020-03-19 05:00:00 13 12 Este 26 Este 0 967.1 -0.6 53
2020-03-19 04:00:00 13 10 Este 21 Este 0 967.3 -0.6 61
2020-03-19 03:00:00 13.5 8 Sudeste 22 Este 0 967.6 -0.7 62
2020-03-19 02:00:00 13.6 12 Este 21 Este 0 967.7 -0.8 64
2020-03-19 01:00:00 13.5 13 Este 21 Este 0 967.9 -0.5 66
2020-03-19 00:00:00 13.8 12 Este 22 Este 0 968.3 -0.1 65
2020-03-18 23:00:00 14.3 14 Este 25 Este 0 968.5 0.4 65
2020-03-18 22:00:00 14.5 11 Este 18 Este 0 968.4 0.5 64
2020-03-18 21:00:00 14.6 6 Este 19 Este 0 968.4 0.8 64
2020-03-18 20:00:00 15.1 12 Este 21 Este 0 968.1 0.6 62
2020-03-18 19:00:00 16.2 13 Nordeste 29 Nordeste 0 967.9 0.1 60
2020-03-18 18:00:00 17.9 15 Nordeste 33 Nordeste 0 967.6 -0.9 56
2020-03-18 17:00:00 19.2 16 Nordeste 33 Norte 0 967.5 -1.8 52
2020-03-18 16:00:00 18.6 17 Nordeste 31 Este 0 967.8 -2.1 51
2020-03-18 15:00:00 18 19 Nordeste 32 Nordeste 0 968.5 -1.9 53
2020-03-18 14:00:00 17.2 16 Nordeste 29 Nordeste 0 969.3 -1.2 54
2020-03-18 13:00:00 16.5 16 Nordeste 28 Nordeste 0 969.9 -0.4 59
2020-03-18 12:00:00 15.7 15 Este 31 Nordeste 0 970.4 0.4 59
2020-03-18 11:00:00 14.1 19 Nordeste 37 Este 0 970.5 0.8 63
2020-03-18 10:00:00 12.9 19 Este 34 Este 0 970.3 0.8 67
2020-03-18 09:00:00 10.9 15 Este 25 Nordeste 0 970 0.6 76
2020-03-18 08:00:00 10.3 14 Este 26 Este 0 969.7 0.2 79
2020-03-18 07:00:00 10.7 9 Este 22 Nordeste 0 969.5 -0.4 79
2020-03-18 06:00:00 10.5 7 Norte 13 Norte 0 969.4 -0.2 85
2020-03-18 05:00:00 11.2 2 Norte 20 Este 0 969.5 -0.2 82
2020-03-18 04:00:00 12.1 12 Este 27 Nordeste 0 969.9 0 79
2020-03-18 03:00:00 12.3 13 Este 32 Este 0 969.6 -0.7 77
2020-03-18 02:00:00 11.7 12 Este 22 Este 0 969.7 -0.9 79
2020-03-18 01:00:00 11.6 11 Este 25 Nordeste 0 969.9 -0.9 78
2020-03-18 00:00:00 8.8 4 Sur 15 Nordeste 0 970.3 -0.1 78
2020-03-17 23:00:00 8.4 6 Sudoeste 9 Sudoeste 0 970.6 0.7 78
2020-03-17 22:00:00 9.6 5 Sur 9 Sudoeste 0 970.8 1.5 73
2020-03-17 21:00:00 12 3 Este 11 Nordeste 0 970.4 1.6 62
2020-03-17 20:00:00 13.3 7 Nordeste 24 Nordeste 0 969.9 1.2 57
2020-03-17 19:00:00 14.8 13 Nordeste 27 Nordeste 0 969.3 0.9 50
2020-03-17 18:00:00 16.1 14 Nordeste 31 Este 0 968.8 0.3 42
2020-03-17 17:00:00 15.8 23 Este 40 Este 0 968.7 0 34
2020-03-17 16:00:00 15.6 18 Este 38 Nordeste 0 968.4 -0.6 36
2020-03-17 15:00:00 15.9 18 Este 41 Este 0 968.5 -0.7 39
2020-03-17 14:00:00 14.9 24 Este 44 Este 0 968.7 -0.4 40
2020-03-17 13:00:00 12.5 22 Nordeste 45 Nordeste 0 969 0.5 62
2020-03-17 12:00:00 10.4 24 Nordeste 40 Nordeste 0 969.2 1.2 70
2020-03-17 11:00:00 9 16 Nordeste 33 Nordeste 0 969.1 1.6 73
2020-03-17 10:00:00 7 15 Nordeste 32 Nordeste 0 968.5 1.7 79
2020-03-17 09:00:00 5.5 16 Nordeste 32 Nordeste 0 968 1.6 83
2020-03-17 08:00:00 4.1 8 Nordeste 18 Nordeste 0 967.5 1.6 88
2020-03-17 07:00:00 3.4 2 Sudeste 20 Norte 0 966.8 1 90
2020-03-17 06:00:00 3.4 8 Norte 24 Norte 0 966.4 0.6 90
2020-03-17 05:00:00 4 12 Norte 19 Norte 0 965.9 0.4 90
2020-03-17 04:00:00 4.4 13 Norte 26 Norte 0 965.8 0.2 90
2020-03-17 03:00:00 4.5 13 Norte 22 Nordeste 0 965.8 0.5 93
2020-03-17 02:00:00 5.2 7 Nordeste 27 Norte 0 965.5 0.2 92
2020-03-17 01:00:00 5.9 15 Norte 44 Norte 0.6 965.6 0.5 90
2020-03-17 00:00:00 6.7 21 Norte 41 Norte 0.2 965.3 0.6 85
2020-03-16 23:00:00 6.9 18 Norte 39 Norte 0.2 965.3 1.2 87
2020-03-16 22:00:00 6.9 23 Norte 37 Norte 1.4 965.1 1.9 89
2020-03-16 21:00:00 7.4 7 Norte 15 Nordeste 1 964.7 0.7 86
2020-03-16 20:00:00 8 6 Noroeste 16 Noroeste 0.4 964.1 0.4 85
2020-03-16 19:00:00 8.7 9 Oeste 26 Noroeste 0 963.2 -0.7 74
2020-03-16 18:00:00 8.5 20 Noroeste 40 Noroeste 0.4 964 0.4 73
2020-03-16 17:00:00 10.4 15 Noroeste 32 Norte 0 963.7 -0.1 54
2020-03-16 16:00:00 10.1 16 Norte 51 Norte 0 963.9 -0.3 60
2020-03-16 15:00:00 11.8 28 Norte 51 Norte 0 963.6 -0.8 43
2020-03-16 14:00:00 13.2 23 Noroeste 50 Norte 0 963.8 -0.5 44
2020-03-16 13:00:00 11.3 23 Noroeste 47 Norte 0 964.2 0.1 43
2020-03-16 12:00:00 10.6 28 Noroeste 47 Norte 0 964.4 0.5 49
2020-03-16 11:00:00 8.8 22 Noroeste 41 Noroeste 0 964.3 0.9 53
2020-03-16 10:00:00 7.1 21 Noroeste 37 Noroeste 0 964.1 1 61
2020-03-16 09:00:00 5.1 16 Oeste 29 Oeste 0 963.9 0.9 69
2020-03-16 08:00:00 4 15 Oeste 27 Oeste 0 963.4 0.6 73
2020-03-16 07:00:00 4.1 14 Oeste 31 Oeste 0 963.1 0.1 75
2020-03-16 06:00:00 4.3 14 Oeste 31 Oeste 0 963 -0.4 77
2020-03-16 05:00:00 4.7 18 Oeste 31 Oeste 0 962.8 -0.7 73
2020-03-16 04:00:00 5.2 19 Oeste 35 Oeste 0 963 -1.1 70
2020-03-16 03:00:00 5.2 19 Oeste 34 Oeste 0 963.4 -0.7 70
2020-03-16 02:00:00 5.3 13 Oeste 24 Noroeste 0 963.5 -0.2 70
2020-03-16 01:00:00 5.7 14 Oeste 34 Oeste 0 964.1 1 66
2020-03-16 00:00:00 6.2 24 Oeste 46 Oeste 0 964.1 1.7 66
2020-03-15 23:00:00 6.9 23 Oeste 49 Oeste 0 963.7 2 66
2020-03-15 22:00:00 8.2 23 Noroeste 39 Oeste 0 963.1 1.8 71
2020-03-15 21:00:00 9 21 Oeste 46 Oeste 0 962.4 1.4 71
2020-03-15 20:00:00 10.6 28 Oeste 49 Noroeste 0 961.7 0.3 75
2020-03-15 19:00:00 14 23 Oeste 41 Oeste 0 961.3 -0.7 52
2020-03-15 18:00:00 16 22 Oeste 43 Oeste 0 961 -1 47
2020-03-15 17:00:00 16.8 22 Oeste 41 Oeste 0 961.4 -0.6 49
2020-03-15 16:00:00 15.3 22 Oeste 44 Oeste 0 962 -0.6 60
2020-03-15 15:00:00 16.5 24 Oeste 43 Oeste 0 962 -1.2 61
2020-03-15 14:00:00 19.7 19 Oeste 35 Sudoeste 0 962 -1.6 48
2020-03-15 13:00:00 19.3 14 Sudoeste 27 Oeste 0 962.6 -0.9 49
2020-03-15 12:00:00 18.1 10 Noroeste 22 Oeste 0 963.2 -0.1 62
2020-03-15 11:00:00 16.8 6 Norte 19 Sudoeste 0 963.6 0.6 70
2020-03-15 10:00:00 16.8 6 Oeste 17 Sudoeste 0 963.5 0.5 61
2020-03-15 09:00:00 13.9 10 Sur 17 Sur 0 963.3 0.2 75
2020-03-15 08:00:00 9.4 7 Sur 10 Sudoeste 0 963 -0.2 90
2020-03-15 07:00:00 9.8 5 Sudoeste 10 Sudoeste 0 963 -0.7 89
2020-03-15 06:00:00 10.1 8 Sur 10 Sur 0 963.1 -1.2 88
2020-03-15 05:00:00 10.2 9 Sudoeste 12 Sudoeste 0 963.2 -1.2 88
2020-03-15 04:00:00 10.6 6 Sur 10 Sudoeste 0 963.7 -1.1 85
2020-03-15 03:00:00 10.7 8 Sur 10 Sur 0 964.3 -0.8 85
2020-03-15 02:00:00 11.1 6 Sur 10 Sur 0 964.4 -0.7 83
2020-03-15 01:00:00 11.6 7 Sudoeste 11 Sudoeste 0 964.8 -0.6 83
2020-03-15 00:00:00 12.5 8 Sudoeste 10 Sudoeste 0 965.1 -0.2 80
2020-03-14 23:00:00 13.5 9 Sur 11 Sudoeste 0 965.1 -0.1 77
2020-03-14 22:00:00 14.8 6 Sur 14 Sudoeste 0 965.4 0.3 73
2020-03-14 21:00:00 16.8 5 Sur 7 Este 0 965.3 0.3 65
2020-03-14 20:00:00 19.3 4 Este 9 Nordeste 0 965.2 -0.1 57
2020-03-14 19:00:00 21.1 7 Nordeste 12 Nordeste 0 965.1 -0.5 50
2020-03-14 18:00:00 22.2 3 Sur 11 Nordeste 0 965 -1.3 48
2020-03-14 17:00:00 21.4 4 Este 11 Norte 0 965.3 -1.8 54
2020-03-14 16:00:00 20.9 6 Este 14 Nordeste 0 965.6 -1.8 55
2020-03-14 15:00:00 20.7 4 Norte 13 Este 0 966.3 -1.4 56
2020-03-14 14:00:00 19.8 5 Este 15 Norte 0 967.1 -0.9 56
2020-03-14 13:00:00 18.7 4 Noroeste 13 Nordeste 0 967.4 -0.2 58
2020-03-14 12:00:00 17.1 6 Norte 13 Norte 0 967.7 0.4 58
2020-03-14 11:00:00 16 5 Nordeste 17 Norte 0 968 1 58
2020-03-14 10:00:00 13.6 6 Sur 9 Sur 0 967.6 1.1 71
2020-03-14 09:00:00 10 7 Sur 10 Sur 0 967.3 1 84
2020-03-14 08:00:00 7.4 6 Sudoeste 9 Sudoeste 0 967 0.7 88
2020-03-14 07:00:00 8 6 Sudoeste 12 Sur 0 966.5 0 88
2020-03-14 06:00:00 8.7 8 Sur 10 Sur 0 966.3 -0.3 89
2020-03-14 05:00:00 9.3 6 Sur 9 Sudoeste 0 966.3 -0.6 87
2020-03-14 04:00:00 9.7 6 Sudoeste 9 Sudoeste 0 966.5 -0.5 87
2020-03-14 03:00:00 10.9 6 Sur 12 Sur 0 966.6 -0.4 87
2020-03-14 02:00:00 11.3 5 Sur 8 Sudoeste 0 966.9 0.1 88
2020-03-14 01:00:00 12.3 5 Sur 10 Sudoeste 0 967 0.7 87
2020-03-14 00:00:00 12.4 4 Sudoeste 12 Noroeste 0 967 1.1 87
2020-03-13 23:00:00 12.9 3 Oeste 9 Noroeste 0 966.8 1.3 86
2020-03-13 22:00:00 14 4 Oeste 10 Noroeste 0 966.3 1.1 84
2020-03-13 21:00:00 14.8 9 Noroeste 13 Noroeste 0 965.9 1 82
2020-03-13 20:00:00 16.6 5 Oeste 15 Oeste 0 965.5 0.5 73
2020-03-13 19:00:00 18.1 8 Oeste 19 Oeste 0 965.2 0.2 66
2020-03-13 18:00:00 18.4 12 Oeste 22 Noroeste 0 964.9 -0.4 65
2020-03-13 17:00:00 19.6 13 Noroeste 24 Noroeste 0 965 -1 65
2020-03-13 16:00:00 19.3 11 Noroeste 21 Noroeste 0 965 -1.3 64
2020-03-13 15:00:00 18.9 9 Noroeste 17 Noroeste 0 965.3 -1 63
2020-03-13 14:00:00 17.7 10 Noroeste 18 Noroeste 0 966 -0.4 67
2020-03-13 13:00:00 16.5 6 Norte 14 Noroeste 0 966.3 0.1 70
2020-03-13 12:00:00 15.3 5 Norte 13 Noroeste 0 966.3 0.7 75
2020-03-13 11:00:00 13.1 8 Noroeste 14 Noroeste 0 966.4 1.1 81
2020-03-13 10:00:00 11.3 5 Oeste 10 Oeste 0 966.2 1.4 91
2020-03-13 09:00:00 8 3 Este 6 Este 0 965.6 1.1 95
2020-03-13 08:00:00 7.9 3 Este 9 Noroeste 0 965.3 0.7 94
2020-03-13 07:00:00 8.6 4 Oeste 6 Noroeste 0 964.8 0.1 92
2020-03-13 06:00:00 9 2 Noroeste 9 Sur 0 964.5 -0.5 94
2020-03-13 05:00:00 9.6 3 Oeste 7 Noroeste 0 964.6 -0.8 95
2020-03-13 04:00:00 10 3 Oeste 9 Sur 0 964.7 -0.9 90
2020-03-13 03:00:00 10.8 3 Sudoeste 7 Noroeste 0 965 -0.9 88
2020-03-13 02:00:00 11.4 5 Sudoeste 8 Oeste 0 965.4 -0.5 85
2020-03-13 01:00:00 12.3 3 Noroeste 7 Sudoeste 0 965.6 0 83
2020-03-13 00:00:00 12.8 6 Sur 9 Sur 0 965.9 0.5 81
2020-03-12 23:00:00 14.9 6 Sur 10 Sudoeste 0 965.9 0.8 74
2020-03-12 22:00:00 16.2 6 Sudoeste 13 Sudoeste 0 965.6 0.7 69
2020-03-12 21:00:00 17 9 Sur 17 Sudoeste 0 965.4 0.6 66
2020-03-12 20:00:00 18.8 11 Sudoeste 18 Oeste 0 965.1 0.2 59
2020-03-12 19:00:00 20.2 11 Oeste 20 Noroeste 0 964.9 -0.3 57
2020-03-12 18:00:00 21.7 12 Noroeste 20 Noroeste 0 964.8 -0.9 52
2020-03-12 17:00:00 22.8 3 Sur 15 Sudeste 0 964.9 -1.5 41
2020-03-12 16:00:00 22.8 6 Sur 20 Sudeste 0 965.2 -1.6 40
2020-03-12 15:00:00 22.9 10 Sudeste 22 Sur 0 965.7 -1.6 40
2020-03-12 14:00:00 22.6 11 Sur 25 Sudeste 0 966.4 -- 39
2020-03-12 13:00:00 22.4 14 Sur 24 Sudeste 0 966.8 -0.3 37
2020-03-12 12:00:00 22 5 Sur -- -- -- 967.3 0.5 39
2020-03-12 11:00:00 -- -- -- -- -- -- -- -- --
2020-03-12 10:00:00 18.4 6 Sur 12 Sur 0 967.1 0.8 50
2020-03-12 09:00:00 16.9 7 Sudeste 12 Sudeste 0 966.8 0.6 54
2020-03-12 08:00:00 12.4 7 Sudeste 10 Sudeste 0 966.4 0.1 80
2020-03-12 07:00:00 12.3 3 Sur 7 Sudeste 0 966.3 -0.5 80
2020-03-12 06:00:00 12.2 4 Sudeste 9 Sudoeste 0 966.2 -1.2 79
2020-03-12 05:00:00 12.9 6 Sudoeste 9 Sudoeste 0 966.3 -1.4 77
2020-03-12 04:00:00 13.2 4 Oeste 9 Sudoeste 0 966.8 -1.5 77
2020-03-12 03:00:00 13 5 Sur 9 Sudoeste 0 967.4 -1.2 80
2020-03-12 02:00:00 13.7 5 Sur 9 Sudoeste 0 967.7 -1.1 80
2020-03-12 01:00:00 14.7 6 Sur 9 Sudeste 0 968.3 -0.5 78
2020-03-12 00:00:00 15.1 6 Sur 8 Sur 0 968.6 0 78
2020-03-11 23:00:00 15.7 6 Sur 10 Sudoeste 0 968.8 0.1 76
2020-03-11 22:00:00 16.2 6 Sudoeste 9 Sudoeste 0 968.8 -0.1 77
2020-03-11 21:00:00 17.4 5 Sur 8 Sudoeste 0 968.6 -0.4 73
2020-03-11 20:00:00 19.3 2 Sudeste 8 Nordeste 0 968.7 -0.7 65
2020-03-11 19:00:00 20.5 4 Este 7 Este 0 968.9 -0.8 58
2020-03-11 18:00:00 21.3 4 Nordeste 17 Este 0 969 -1.2 59
2020-03-11 17:00:00 21.9 11 Este 15 Este 0 969.4 -1.5 55
2020-03-11 16:00:00 22.9 5 Este 16 Este 0 969.7 -1.6 42
2020-03-11 15:00:00 23.1 10 Este 21 Este 0 970.2 -1.5 44
2020-03-11 14:00:00 23.8 10 Este 23 Este 0 970.9 -1 40
2020-03-11 13:00:00 23.5 12 Este 21 Este 0 971.3 -0.3 36
2020-03-11 12:00:00 22 13 Este 21 Este 0 971.7 0.6 40
2020-03-11 11:00:00 20.2 6 Este 14 Este 0 971.9 1 50
2020-03-11 10:00:00 17.5 0 Calma 10 Sur 0 971.6 0.5 67
2020-03-11 09:00:00 12.6 5 Sur 10 Sur 0 971.1 0 76
2020-03-11 08:00:00 10.2 7 Sur 9 Sudeste 0 970.9 -0.3 82
2020-03-11 07:00:00 9.6 6 Sur 11 Sudoeste 0 971.1 -0.3 82
2020-03-11 06:00:00 9.9 6 Sur 10 Sudoeste 0 971.1 -1 81
2020-03-11 05:00:00 10.1 7 Sur 11 Sur 0 971.2 -1.3 79
2020-03-11 04:00:00 10.3 8 Sudoeste 10 Sudoeste 0 971.4 -1.6 78
2020-03-11 03:00:00 10.9 8 Sudoeste 11 Sur 0 972.1 -1.2 75
2020-03-11 02:00:00 11 7 Sur 10 Sudoeste 0 972.5 -0.9 75
2020-03-11 01:00:00 11.5 8 Sudoeste 10 Sudoeste 0 973 -0.4 73
2020-03-11 00:00:00 12.2 8 Sudoeste 9 Sudoeste 0 973.3 0 73
2020-03-10 23:00:00 13.3 6 Sur 10 Sur 0 973.4 0.5 72
2020-03-10 22:00:00 14.8 8 Sur 10 Sudoeste 0 973.4 0.7 68
2020-03-10 21:00:00 17 6 Sur 10 Sudoeste 0 973.3 0.7 59
2020-03-10 20:00:00 20.3 6 Sur 8 Sudeste 0 972.9 0.1 46
2020-03-10 19:00:00 22.4 3 Norte 9 Noroeste 0 972.7 -0.5 48
2020-03-10 18:00:00 23 4 Norte 10 Norte 0 972.6 -1.2 44
2020-03-10 17:00:00 22.6 6 Nordeste 13 Nordeste 0 972.8 -1.6 43
2020-03-10 16:00:00 22.7 4 Noroeste 14 Norte 0 973.2 -1.9 43
2020-03-10 15:00:00 21.8 5 Nordeste 14 Nordeste 0 973.8 -1.3 42
2020-03-10 14:00:00 21.2 6 Nordeste 12 Este 0 974.4 -0.6 43
2020-03-10 13:00:00 19.9 6 Noroeste 13 Norte 0 975.1 0.3 45
2020-03-10 12:00:00 18 7 Norte 12 Nordeste 0 975.1 0.8 54
2020-03-10 11:00:00 16.4 5 Norte 11 Nordeste 0 975 0.8 56
2020-03-10 10:00:00 14.6 6 Este 10 Este 0 974.8 0.8 52
2020-03-10 09:00:00 9.3 5 Sur 14 Sur 0 974.3 0.6 72
2020-03-10 08:00:00 7.1 4 Sur 8 Sur 0 974.2 0.3 80
2020-03-10 07:00:00 7.8 6 Sur 11 Sudoeste 0 974 0 78
2020-03-10 06:00:00 8.2 8 Sur 11 Sur 0 973.7 -0.7 77
2020-03-10 05:00:00 8.3 6 Sur 9 Sur 0 973.9 -0.7 77
2020-03-10 04:00:00 8.8 5 Sudoeste 10 Sudeste 0 974 -1 76
2020-03-10 03:00:00 8.9 3 Sur 13 Noroeste 0 974.4 -0.5 76
2020-03-10 02:00:00 10.4 5 Oeste 13 Sudeste 0 974.6 0 71
2020-03-10 01:00:00 11 6 Sur 10 Sur 0 975 0.5 71
2020-03-10 00:00:00 12 5 Sur 15 Oeste 0 974.9 0.8 68
2020-03-09 23:00:00 12.9 6 Sudoeste 19 Noroeste 0 974.6 0.9 66
2020-03-09 22:00:00 13.5 12 Oeste 21 Oeste 0 974.5 1 64
2020-03-09 21:00:00 14.6 9 Oeste 21 Oeste 0 974.1 0.5 56
2020-03-09 20:00:00 16.1 7 Oeste 17 Noroeste 0 973.7 -0.6 48
2020-03-09 19:00:00 18 13 Oeste 22 Noroeste 0 973.5 -1 38
2020-03-09 18:00:00 19 12 Noroeste 22 Oeste 0 973.6 -1.4 33
2020-03-09 17:00:00 18.3 11 Noroeste 27 Oeste 0 974.3 -1.3 36
2020-03-09 16:00:00 18 15 Oeste 30 Noroeste 0 974.5 -1.7 37
2020-03-09 15:00:00 17.4 14 Noroeste 31 Noroeste 0 975 -1.1 41
2020-03-09 14:00:00 16.2 13 Noroeste 25 Oeste 0 975.6 -0.6 44
2020-03-09 13:00:00 14.8 11 Noroeste 21 Noroeste 0 976.2 0.5 51
2020-03-09 12:00:00 13.3 11 Noroeste 22 Noroeste 0 976.1 0.6 61
2020-03-09 11:00:00 12.1 10 Noroeste 19 Noroeste 0 976.2 1.4 59
2020-03-09 10:00:00 10.2 10 Noroeste 18 Noroeste 0 975.7 0.9 68
2020-03-09 09:00:00 7.9 9 Noroeste 15 Oeste 0 975.5 0.8 79
2020-03-09 08:00:00 4.8 8 Sudoeste 10 Sudoeste 0 974.8 0.2 88
2020-03-09 07:00:00 6.9 5 Oeste 10 Sudoeste 0 974.8 0.1 87
2020-03-09 06:00:00 6.9 5 Sudoeste 10 Oeste 0 974.7 -0.6 88
2020-03-09 05:00:00 7.8 6 Sudoeste 12 Oeste 0 974.6 -1.1 87
2020-03-09 04:00:00 8.2 7 Oeste 12 Oeste 0 974.7 -0.8 88
2020-03-09 03:00:00 9 9 Oeste 15 Oeste 0 975.3 -0.2 90
2020-03-09 02:00:00 9 3 Sudoeste 22 Oeste 0 975.7 -0.1 91
2020-03-09 01:00:00 9.7 13 Oeste 20 Oeste 0 975.5 0.3 89
2020-03-09 00:00:00 10.5 12 Oeste 21 Oeste 0 975.5 0.7 85